Flight Track Log - Related Links

Times and Time Zones

All times are in EDT time to prevent confusion due to time zone crossing. See the SWA920 flight status page for this flight to view local times or setup timezone preferences in your user account.

Time Position Orientation Groundspeed Altitude Reporting Facility
EDT Latitude Longitude Course Direction KTS MPH feet Rate Location/Type
Wed 10:07:52 PM 39.1300 -76.6031 284° West 154 177 3,500  Level Washington Center
Wed 10:08:52 PM 39.1369 -76.5228 84° East 170 196 6,000 3,100 Climbing Washington Center
Wed 10:09:52 PM 39.1397 -76.4267 88° East 222 255 9,700 3,126 Climbing Washington Center
Wed 10:10:51 PM 39.1447 -76.3142 87° East 260 299 12,200 3,000 Climbing Washington Center
Wed 10:11:52 PM 39.1536 -76.1911 85° East 301 346 15,700 2,975 Climbing Washington Center
Wed 10:12:52 PM 39.1731 -76.0628 79° East 338 389 18,200 2,695 Climbing Washington Center
Wed 10:13:00 PM 39.1507 -76.5535 284° West  Level FlightAware Approximate
Wed 10:13:50 PM 39.1881 -75.9289 82° East 361 415 21,000  Level Washington Center
Wed 10:14:51 PM 39.2425 -75.8139 59° Northeast 365 420 23,500 2,361 Climbing Washington Center
Wed 10:15:52 PM 39.3197 -75.7122 46° Northeast 370 426 25,800 2,218 Climbing Washington Center
Wed 10:16:50 PM 39.4053 -75.6078 43° Northeast 388 447 27,900 2,067 Climbing Washington Center
Wed 10:17:51 PM 39.4864 -75.5003 46° Northeast 400 460 29,900 2,262 Climbing Washington Center
Wed 10:18:52 PM 39.5675 -75.3978 44° Northeast 405 466 32,500 2,331 Climbing Washington Center
Wed 10:19:52 PM 39.6464 -75.2950 45° Northeast 405 466 34,600 1,906 Climbing Washington Center
Wed 10:20:17 PM 39.6783 -75.2511 47° Northeast 407 468 35,200 1,186 Climbing New York Center
Wed 10:21:18 PM 39.7511 -75.1397 50° Northeast 412 474 36,300 857 Climbing New York Center
Wed 10:22:16 PM 39.8303 -75.0283 47° Northeast 412 474 36,900 -559 Climbing New York Center
Wed 10:23:16 PM 39.9031 -74.9164 50° Northeast 413 475 35,200 -1,230 Descending New York Center
Wed 10:24:18 PM 39.9669 -74.8228 48° Northeast 404 465 34,400 -885 Descending New York Center
Wed 10:25:18 PM 40.0439 -74.7025 50° Northeast 389 448 33,400 -712 Descending New York Center
Wed 10:26:16 PM 40.1097 -74.6031 49° Northeast 395 455 33,000 -202 Descending New York Center
Wed 10:27:17 PM 40.1842 -74.4903 49° Northeast 395 455 33,000  Level New York Center
Wed 10:28:16 PM 40.2564 -74.3800 49° Northeast 400 460 33,000  Level New York Center
Wed 10:29:17 PM 40.3286 -74.2694 49° Northeast 395 455 33,000  Level New York Center
Wed 10:31:50 PM 40.5078 -73.9986 49° Northeast 396 456 33,000  Level Boston Center
Wed 10:32:50 PM 40.5781 -73.8883 50° Northeast 385 443 33,000 -600 Level Boston Center
Wed 10:33:50 PM 40.6333 -73.7992 51° Northeast 385 443 31,800 -2,150 Descending Boston Center
Wed 10:34:50 PM 40.7183 -73.6642 50° Northeast 390 449 28,700 -2,800 Descending Boston Center
Wed 10:35:50 PM 40.7861 -73.5531 51° Northeast 396 456 26,200 -2,350 Descending Boston Center
Wed 10:36:50 PM 40.8536 -73.4472 50° Northeast 391 450 24,000 -1,300 Descending Boston Center
Wed 10:37:50 PM 40.9233 -73.3439 48° Northeast 380 437 23,600 -455 Descending Boston Center
Wed 10:39:02 PM 40.9972 -73.2403 47° Northeast 380 437 23,000 -273 Descending Boston Center
Wed 10:40:02 PM 41.0689 -73.1036 55° Northeast 379 436 23,000  Level Boston Center
Wed 10:41:02 PM 41.1194 -72.9800 61° Northeast 379 436 23,000  Level Boston Center
Wed 10:42:02 PM 41.1700 -72.8536 62° Northeast 379 436 23,000  Level Boston Center
Wed 10:43:02 PM 41.2183 -72.7272 63° Northeast 379 436 23,000  Level Boston Center
Wed 10:44:02 PM 41.2750 -72.5836 62° Northeast 385 443 23,000  Level Boston Center
Wed 10:45:02 PM 41.3250 -72.4539 63° Northeast 390 449 23,000  Level Boston Center
Wed 10:46:02 PM 41.3769 -72.3239 62° Northeast 390 449 23,000  Level Boston Center
Wed 10:47:02 PM 41.4228 -72.2158 60° Northeast 381 438 23,000 -350 Level Boston Center
Wed 10:48:02 PM 41.4703 -72.0856 64° Northeast 381 438 22,300 -1,550 Descending Boston Center
Wed 10:49:02 PM 41.5200 -71.9633 61° Northeast 381 438 19,900 -2,200 Descending Boston Center
Wed 10:50:02 PM 41.5672 -71.8408 63° Northeast 371 427 17,900 -2,400 Descending Boston Center
Wed 10:51:02 PM 41.6144 -71.7153 63° Northeast 360 414 15,100 -2,500 Descending Boston Center
Wed 10:52:02 PM 41.6553 -71.6094 63° Northeast 344 396 12,900 -1,900 Descending Boston Center
Wed 10:53:02 PM 41.7025 -71.4864 63° Northeast 344 396 11,300 -950 Descending Boston Center
Wed 10:54:02 PM 41.7453 -71.3967 57° Northeast 303 349 11,000 -150 Descending Boston Center
Wed 10:55:02 PM 41.7989 -71.3233 46° Northeast 278 320 11,000 -300 Level Boston Center
Wed 10:56:02 PM 41.8544 -71.2556 42° Northeast 267 307 10,400 -1,000 Descending Boston Center
Wed 10:57:02 PM 41.9186 -71.2236 20° North 260 299 9,000 -1,500 Descending Boston Center
Wed 10:58:02 PM 41.9914 -71.1886 20° North 255 293 7,400 -1,450 Descending Boston Center
Wed 10:59:02 PM 42.0514 -71.1567 22° Northeast 250 288 6,100 -1,600 Descending Boston Center
Wed 11:00:02 PM 42.1239 -71.1217 20° North 250 288 4,200 -1,643 Descending Boston Center
Wed 11:00:26 PM 42.1500 -71.1000 32° Northeast 251 289 3,800 -857 Descending KA90
Wed 11:01:26 PM 42.2000 -71.0833 14° North 195 224 3,000 -800 Descending KA90
Wed 11:02:26 PM 42.2500 -71.0667 14° North 175 201 2,200 -850 Descending KA90
Wed 11:03:26 PM 42.3000 -71.0333 26° Northeast 172 198 1,300 -850 Descending KA90
Wed 11:04:26 PM 42.3333 -71.0167 20° North 151 174 500 8,346 Descending KA90
Wed 11:06:02 PM 42.3975 -70.9978 12° North 161 185 23,000 14,063 Climbing Boston Center

Login

Don't have an account? Register now (free) for customized features, flight alerts, and more!